Time;durP1;ratioP1;P1;durP2;ratioP2;P2;SDS_P1;SDS_P2;PMS_P1;PMS_P2;Temp;Humidity;BMP_temperature;BMP_pressure;BME280_temperature;BME280_humidity;BME280_pressure;Samples;Min_cycle;Max_cycle;Signal;HPM_P1;HPM_P2
2022/09/02 00:01:40;;;;;;;2.10;1.40;;;16.40;99.90;;;;;;5085445;28;20559;-54
2022/09/02 00:04:09;;;;;;;2.20;1.30;;;16.40;99.90;;;;;;5076975;28;20493;-50
2022/09/02 00:06:36;;;;;;;1.87;1.30;;;16.40;99.90;;;;;;5077805;28;20450;-52
2022/09/02 00:09:05;;;;;;;2.43;2.17;;;16.40;99.90;;;;;;5076697;28;20474;-52
2022/09/02 00:11:33;;;;;;;1.90;1.33;;;16.40;99.90;;;;;;5076113;28;20442;-53
2022/09/02 00:14:05;;;;;;;1.60;1.50;;;16.40;99.90;;;;;;5077603;28;20462;-53
2022/09/02 00:16:32;;;;;;;2.23;1.43;;;16.40;99.90;;;;;;5077147;28;20442;-43
2022/09/02 00:19:01;;;;;;;2.10;1.20;;;16.40;99.90;;;;;;5075901;28;20514;-47
2022/09/02 00:21:29;;;;;;;2.03;1.60;;;16.40;99.90;;;;;;5076754;28;20505;-59
2022/09/02 00:23:56;;;;;;;1.97;1.20;;;16.40;99.90;;;;;;5078424;28;20442;-33
2022/09/02 00:26:23;;;;;;;1.97;1.60;;;16.40;99.90;;;;;;5078697;28;20441;-52
2022/09/02 00:28:50;;;;;;;2.17;1.47;;;16.40;99.90;;;;;;5076468;28;20961;-51
2022/09/02 00:31:19;;;;;;;2.23;1.77;;;16.40;99.90;;;;;;5091599;28;20762;-55
2022/09/02 00:33:47;;;;;;;2.03;1.20;;;16.40;99.90;;;;;;5095906;28;20453;-55
2022/09/02 00:36:14;;;;;;;2.47;1.50;;;16.40;99.90;;;;;;5101113;28;20805;-54
2022/09/02 00:38:40;;;;;;;3.37;1.83;;;16.40;99.90;;;;;;5096659;28;20489;-54
2022/09/02 00:41:09;;;;;;;2.60;1.27;;;16.40;99.90;;;;;;5099238;28;20550;-52
2022/09/02 00:43:44;;;;;;;2.47;1.30;;;16.40;99.90;;;;;;5088722;28;20930;-45
2022/09/02 00:46:12;;;;;;;3.80;1.40;;;16.40;99.90;;;;;;5078198;28;20511;-54
2022/09/02 00:48:44;;;;;;;2.33;1.40;;;16.50;99.90;;;;;;5077006;28;20498;-55
2022/09/02 00:51:13;;;;;;;2.00;1.30;;;16.50;99.90;;;;;;5076386;28;20496;-54
2022/09/02 00:53:42;;;;;;;1.60;1.47;;;16.50;99.90;;;;;;5078688;28;20896;-56
2022/09/02 00:56:14;;;;;;;1.43;1.00;;;16.50;99.90;;;;;;5079557;28;20476;-55
2022/09/02 00:58:43;;;;;;;2.73;1.77;;;16.50;99.90;;;;;;5075550;28;20466;-53
2022/09/02 01:01:11;;;;;;;2.63;1.30;;;16.50;99.90;;;;;;5078251;28;20814;-55
2022/09/02 01:03:40;;;;;;;1.53;1.30;;;16.50;99.90;;;;;;5076950;28;20450;-57
2022/09/02 01:06:10;;;;;;;2.73;1.70;;;16.50;99.90;;;;;;5081001;28;20512;-58
2022/09/02 01:08:38;;;;;;;1.37;1.17;;;16.50;99.90;;;;;;5078106;28;20467;-53
2022/09/02 01:11:05;;;;;;;2.63;1.50;;;16.50;99.90;;;;;;5087120;28;20450;-54
2022/09/02 01:13:37;;;;;;;4.00;1.70;;;16.50;99.90;;;;;;5083079;28;20921;-46
2022/09/02 01:16:10;;;;;;;1.77;1.10;;;16.50;99.90;;;;;;5106422;28;20508;-56
2022/09/02 01:18:37;;;;;;;2.33;1.27;;;16.50;99.90;;;;;;5095490;28;20550;-56
2022/09/02 01:21:06;;;;;;;1.57;1.27;;;16.50;99.90;;;;;;5094872;28;20481;-55
2022/09/02 01:23:36;;;;;;;4.53;1.73;;;16.50;99.90;;;;;;5088887;28;20477;-55
2022/09/02 01:26:06;;;;;;;1.70;1.27;;;16.50;99.90;;;;;;5075324;28;20829;-55
2022/09/02 01:28:33;;;;;;;2.27;1.40;;;16.50;99.90;;;;;;5075223;28;20477;-48
2022/09/02 01:31:00;;;;;;;2.40;1.47;;;16.40;99.90;;;;;;5074825;28;20445;-47
2022/09/02 01:33:28;;;;;;;3.30;1.33;;;16.40;99.90;;;;;;5074667;28;20771;-54
2022/09/02 01:35:56;;;;;;;6.00;1.77;;;16.30;99.90;;;;;;5081337;28;20470;-50
2022/09/02 01:38:23;;;;;;;2.57;1.77;;;16.30;99.90;;;;;;5074341;28;20465;-53
2022/09/02 01:40:52;;;;;;;1.90;1.40;;;16.20;99.90;;;;;;5086452;28;20531;-54
2022/09/02 01:43:22;;;;;;;1.83;1.30;;;16.20;99.90;;;;;;5096512;28;20846;-52
2022/09/02 01:45:51;;;;;;;1.80;1.23;;;16.10;99.90;;;;;;5097565;28;20442;-56
2022/09/02 01:48:19;;;;;;;3.07;1.30;;;16.10;99.90;;;;;;5095297;28;20493;-52
2022/09/02 01:50:49;;;;;;;2.87;1.20;;;16.10;99.90;;;;;;5099863;28;20426;-35
2022/09/02 01:53:16;;;;;;;1.20;1.03;;;16.10;99.90;;;;;;5096850;28;20461;-46
2022/09/02 01:55:44;;;;;;;2.40;1.30;;;16.10;99.90;;;;;;5076142;28;20474;-51
2022/09/02 01:58:12;;;;;;;2.10;1.57;;;16.10;99.90;;;;;;5076057;28;20446;-53
2022/09/02 02:00:39;;;;;;;1.63;1.30;;;16.00;99.90;;;;;;5074986;28;20446;-52
2022/09/02 02:03:06;;;;;;;2.10;1.23;;;16.00;99.90;;;;;;5074375;28;20529;-53
2022/09/02 02:05:34;;;;;;;1.60;1.10;;;15.90;99.90;;;;;;5081452;28;20443;-54
2022/09/02 02:08:01;;;;;;;1.37;1.10;;;15.90;99.90;;;;;;5075997;28;20454;-48
2022/09/02 02:10:29;;;;;;;1.67;1.10;;;15.90;99.90;;;;;;5076869;28;20525;-55
2022/09/02 02:12:55;;;;;;;1.30;1.13;;;15.90;99.90;;;;;;5081731;28;20537;-55
2022/09/02 02:15:24;;;;;;;4.40;1.50;;;15.90;99.90;;;;;;5095471;28;20469;-54
2022/09/02 02:17:51;;;;;;;1.90;1.00;;;15.80;99.90;;;;;;5107080;28;20449;-51
2022/09/02 02:20:20;;;;;;;2.17;1.50;;;15.80;99.90;;;;;;5094196;28;20927;-52
2022/09/02 02:22:47;;;;;;;1.53;1.03;;;15.80;99.90;;;;;;5106536;28;20555;-52
2022/09/02 02:25:15;;;;;;;3.17;1.33;;;15.80;99.90;;;;;;5101045;28;20442;-52
2022/09/02 02:27:43;;;;;;;1.83;1.20;;;15.80;99.90;;;;;;5094754;28;20460;-47
2022/09/02 02:30:12;;;;;;;1.47;1.37;;;15.70;99.90;;;;;;5095472;28;20449;-54
2022/09/02 02:32:40;;;;;;;2.60;1.30;;;15.70;99.90;;;;;;5075884;28;20537;-54
2022/09/02 02:35:08;;;;;;;2.70;0.90;;;15.70;99.90;;;;;;5073689;28;20487;-50
2022/09/02 02:37:35;;;;;;;1.93;1.13;;;15.70;99.90;;;;;;5078467;28;20515;-49
2022/09/02 02:40:02;;;;;;;4.37;1.60;;;15.70;99.90;;;;;;5085144;28;20533;-47
2022/09/02 02:42:29;;;;;;;2.90;1.50;;;15.60;99.90;;;;;;5074068;28;20490;-49
2022/09/02 02:44:56;;;;;;;2.20;1.40;;;15.60;99.90;;;;;;5075250;28;20443;-49
2022/09/02 02:47:23;;;;;;;1.30;1.10;;;15.50;99.90;;;;;;5076960;28;20458;-50
2022/09/02 02:49:52;;;;;;;2.40;1.00;;;15.50;99.90;;;;;;5078912;28;20541;-55
2022/09/02 02:52:20;;;;;;;1.43;1.20;;;15.60;99.90;;;;;;5081315;28;20442;-54
2022/09/02 02:54:47;;;;;;;1.90;1.40;;;15.60;99.90;;;;;;5077829;28;20554;-52
2022/09/02 02:57:17;;;;;;;2.17;1.37;;;15.50;99.90;;;;;;5077935;28;20530;-50
2022/09/02 02:59:44;;;;;;;2.70;1.57;;;15.50;99.90;;;;;;5079180;28;20446;-53
2022/09/02 03:02:11;;;;;;;1.40;1.30;;;15.40;99.90;;;;;;5085035;28;20509;-55
2022/09/02 03:04:40;;;;;;;2.13;1.03;;;15.40;99.90;;;;;;5097867;28;20808;-53
2022/09/02 03:07:08;;;;;;;1.47;1.27;;;15.40;99.90;;;;;;5097617;28;20468;-54
2022/09/02 03:09:36;;;;;;;9.43;1.30;;;15.40;99.90;;;;;;5087624;28;20492;-49
2022/09/02 03:12:03;;;;;;;2.03;1.27;;;15.30;99.90;;;;;;5079337;28;20536;-49
2022/09/02 03:14:36;;;;;;;2.03;1.17;;;15.30;99.90;;;;;;5077930;28;20847;-56
2022/09/02 03:17:04;;;;;;;2.27;1.30;;;15.30;99.90;;;;;;5077989;28;20479;-57
2022/09/02 03:19:32;;;;;;;2.10;1.00;;;15.20;99.90;;;;;;5080100;28;20448;-52
2022/09/02 03:21:59;;;;;;;4.90;1.63;;;15.20;99.90;;;;;;5077110;28;20512;-54
2022/09/02 03:24:27;;;;;;;2.13;1.30;;;15.20;99.90;;;;;;5089332;28;20475;-52
2022/09/02 03:26:54;;;;;;;2.90;1.93;;;15.20;99.90;;;;;;5097986;28;20474;-48
2022/09/02 03:29:21;;;;;;;1.93;1.17;;;15.20;99.90;;;;;;5097606;28;20484;-51
2022/09/02 03:31:48;;;;;;;3.53;1.43;;;15.10;99.90;;;;;;5085072;28;20444;-51
2022/09/02 03:34:15;;;;;;;2.63;1.40;;;15.10;99.90;;;;;;5078851;28;20461;-48
2022/09/02 03:36:43;;;;;;;1.40;0.90;;;15.10;99.90;;;;;;5077896;28;20533;-52
2022/09/02 03:39:12;;;;;;;2.57;1.83;;;15.00;99.90;;;;;;5090267;28;20464;-50
2022/09/02 03:41:40;;;;;;;1.80;1.07;;;15.00;99.90;;;;;;5097100;28;20484;-58
2022/09/02 03:44:08;;;;;;;1.27;1.10;;;15.00;99.90;;;;;;5098165;28;20899;-56
2022/09/02 03:46:35;;;;;;;3.20;1.20;;;15.00;99.90;;;;;;5097454;28;21018;-55
2022/09/02 03:49:02;;;;;;;5.70;1.33;;;15.00;99.90;;;;;;5095212;28;20477;-54
2022/09/02 03:51:30;;;;;;;2.23;1.47;;;15.00;99.90;;;;;;5099451;28;20529;-54
2022/09/02 03:53:57;;;;;;;2.90;1.70;;;15.10;99.90;;;;;;5099733;28;20458;-51
2022/09/02 03:56:24;;;;;;;1.80;1.10;;;15.00;99.90;;;;;;5099817;28;20601;-52
2022/09/02 03:58:53;;;;;;;2.33;1.80;;;15.00;99.90;;;;;;5098886;28;20449;-54
2022/09/02 04:01:22;;;;;;;2.37;1.67;;;15.00;99.90;;;;;;5097281;28;20457;-47
2022/09/02 04:03:50;;;;;;;1.60;1.30;;;15.00;99.90;;;;;;5096480;28;20469;-55
2022/09/02 04:06:19;;;;;;;2.83;1.50;;;15.00;99.90;;;;;;5097644;28;20850;-56
2022/09/02 04:08:46;;;;;;;4.13;1.77;;;15.00;99.90;;;;;;5096403;28;20484;-54
2022/09/02 04:11:16;;;;;;;1.97;1.60;;;15.00;99.90;;;;;;5095903;28;20458;-55
2022/09/02 04:13:44;;;;;;;1.80;1.37;;;15.00;99.90;;;;;;5084886;28;20451;-54
2022/09/02 04:16:14;;;;;;;2.53;1.80;;;15.00;99.90;;;;;;5086623;28;20465;-41
2022/09/02 04:18:41;;;;;;;3.00;1.60;;;14.90;99.90;;;;;;5080342;28;20461;-52
2022/09/02 04:21:08;;;;;;;2.40;1.27;;;14.90;99.90;;;;;;5085601;28;20758;-50
2022/09/02 04:23:35;;;;;;;2.20;1.70;;;14.90;99.90;;;;;;5078648;28;20470;-54
2022/09/02 04:26:04;;;;;;;2.60;1.57;;;14.90;99.90;;;;;;5075419;28;20450;-51
2022/09/02 04:28:31;;;;;;;2.13;1.70;;;14.90;99.90;;;;;;5076189;28;20481;-54
2022/09/02 04:30:58;;;;;;;1.60;1.50;;;14.90;99.90;;;;;;5078659;28;20442;-52
2022/09/02 04:33:26;;;;;;;2.30;1.67;;;14.90;99.90;;;;;;5077051;28;20907;-52
2022/09/02 04:35:53;;;;;;;1.60;1.30;;;14.90;99.90;;;;;;5081454;28;20466;-53
2022/09/02 04:38:20;;;;;;;1.50;1.37;;;14.90;99.90;;;;;;5084894;28;20449;-50
2022/09/02 04:40:47;;;;;;;1.50;1.20;;;14.90;99.90;;;;;;5097032;28;20546;-52
2022/09/02 04:43:15;;;;;;;3.20;1.53;;;14.90;99.90;;;;;;5088015;28;20483;-57
2022/09/02 04:45:44;;;;;;;4.47;2.80;;;15.00;99.90;;;;;;5082824;28;20441;-49
2022/09/02 04:48:11;;;;;;;2.37;1.57;;;15.00;99.90;;;;;;5083657;28;20561;-49
2022/09/02 04:50:41;;;;;;;2.37;1.10;;;15.10;99.90;;;;;;5077329;28;20427;-47
2022/09/02 04:53:08;;;;;;;3.60;1.50;;;15.10;99.90;;;;;;5076079;28;20460;-52
2022/09/02 04:55:35;;;;;;;2.30;1.37;;;15.10;99.90;;;;;;5077874;28;20965;-53
2022/09/02 04:58:02;;;;;;;4.10;1.73;;;15.10;99.90;;;;;;5075786;28;20480;-52
2022/09/02 05:00:29;;;;;;;6.13;1.60;;;15.10;99.90;;;;;;5076277;28;20446;-54
2022/09/02 05:02:55;;;;;;;2.47;1.77;;;15.10;99.90;;;;;;5078562;28;20482;-51
2022/09/02 05:05:22;;;;;;;3.47;1.97;;;15.10;99.90;;;;;;5089750;28;20454;-49
2022/09/02 05:07:51;;;;;;;2.97;1.43;;;15.20;99.90;;;;;;5075435;28;20456;-48
2022/09/02 05:10:17;;;;;;;5.40;1.90;;;15.20;99.90;;;;;;5075204;28;20439;-47
2022/09/02 05:12:44;;;;;;;1.63;1.20;;;15.20;99.90;;;;;;5085951;28;20509;-33
2022/09/02 05:15:12;;;;;;;4.80;2.00;;;15.20;99.90;;;;;;5078097;28;20461;-51
2022/09/02 05:17:38;;;;;;;2.63;1.70;;;15.20;99.90;;;;;;5081103;28;20516;-55
2022/09/02 05:20:08;;;;;;;1.70;1.30;;;15.30;99.90;;;;;;5076760;28;20447;-53
2022/09/02 05:22:35;;;;;;;3.57;1.87;;;15.30;99.90;;;;;;5075332;28;20795;-50
2022/09/02 05:25:04;;;;;;;2.80;1.60;;;15.30;99.90;;;;;;5079066;28;20514;-48
2022/09/02 05:27:32;;;;;;;2.40;2.20;;;15.30;99.90;;;;;;5075246;28;20471;-50
2022/09/02 05:29:58;;;;;;;1.87;1.70;;;15.30;99.90;;;;;;5080346;28;20460;-51
2022/09/02 05:32:26;;;;;;;2.60;1.67;;;15.30;99.90;;;;;;5076876;28;20446;-54
2022/09/02 05:34:54;;;;;;;3.27;2.23;;;15.40;99.90;;;;;;5079415;28;20474;-52
2022/09/02 05:37:23;;;;;;;4.03;1.70;;;15.40;99.90;;;;;;5078347;28;20951;-57
2022/09/02 05:39:50;;;;;;;2.73;1.50;;;15.40;99.90;;;;;;5080727;28;20523;-52
2022/09/02 05:42:19;;;;;;;6.33;1.47;;;15.50;99.90;;;;;;5074727;28;20492;-55
2022/09/02 05:44:47;;;;;;;2.70;1.47;;;15.50;99.90;;;;;;5074092;28;20458;-49
2022/09/02 05:47:14;;;;;;;2.80;2.00;;;15.50;99.90;;;;;;5075421;28;21041;-56
2022/09/02 05:49:41;;;;;;;2.23;1.77;;;15.50;99.90;;;;;;5080205;28;20812;-51
2022/09/02 05:52:10;;;;;;;5.10;1.87;;;15.50;99.90;;;;;;5095843;28;20467;-53
2022/09/02 05:54:39;;;;;;;3.37;2.13;;;15.60;99.90;;;;;;5096227;28;20469;-54
2022/09/02 05:57:08;;;;;;;2.33;1.70;;;15.60;99.90;;;;;;5091627;28;20442;-55
2022/09/02 05:59:38;;;;;;;1.83;1.67;;;15.70;99.90;;;;;;5087208;28;20465;-55
2022/09/02 06:02:06;;;;;;;5.53;3.13;;;15.70;99.90;;;;;;5093954;28;20509;-51
2022/09/02 06:04:37;;;;;;;1.70;1.43;;;15.80;99.90;;;;;;5095515;28;20483;-51
2022/09/02 06:07:04;;;;;;;7.50;1.83;;;15.90;99.90;;;;;;5111470;28;20426;-48
2022/09/02 06:09:31;;;;;;;3.90;2.17;;;16.00;99.90;;;;;;5091675;28;20517;-51
2022/09/02 06:11:58;;;;;;;4.40;1.90;;;16.00;99.90;;;;;;5100516;28;20923;-51
2022/09/02 06:14:25;;;;;;;3.87;2.00;;;16.00;99.90;;;;;;5091197;28;20561;-55
2022/09/02 06:16:55;;;;;;;2.87;1.60;;;16.10;99.90;;;;;;5078370;28;20431;-50
2022/09/02 06:19:24;;;;;;;1.90;1.70;;;16.10;99.90;;;;;;5081138;28;20473;-53
2022/09/02 06:21:52;;;;;;;2.50;1.83;;;16.10;99.90;;;;;;5097210;28;20523;-53
2022/09/02 06:24:20;;;;;;;2.90;1.90;;;16.20;99.90;;;;;;5099556;28;20484;-55
2022/09/02 06:26:47;;;;;;;2.40;1.83;;;16.30;99.90;;;;;;5091501;28;20445;-52
2022/09/02 06:29:14;;;;;;;8.60;2.67;;;16.30;99.90;;;;;;5116799;28;20556;-54
2022/09/02 06:31:42;;;;;;;3.10;2.10;;;16.40;99.90;;;;;;5097770;28;20468;-47
2022/09/02 06:34:12;;;;;;;3.20;2.17;;;16.60;99.90;;;;;;5094506;28;20926;-54
2022/09/02 06:36:40;;;;;;;2.60;1.80;;;16.80;99.90;;;;;;5122652;28;20452;-54
2022/09/02 06:39:07;;;;;;;2.47;1.67;;;16.90;99.90;;;;;;5082671;28;20434;-54
2022/09/02 06:41:34;;;;;;;8.13;2.13;;;17.10;99.90;;;;;;5092881;28;20505;-53
2022/09/02 06:44:04;;;;;;;8.63;1.90;;;17.20;99.90;;;;;;5096287;28;20465;-54
2022/09/02 06:46:32;;;;;;;1.93;1.53;;;17.20;99.90;;;;;;5088821;28;20470;-52
2022/09/02 06:48:59;;;;;;;2.80;2.00;;;17.20;99.90;;;;;;5078478;28;20442;-61
2022/09/02 06:51:29;;;;;;;2.87;2.30;;;17.20;99.90;;;;;;5080448;28;20454;-55
2022/09/02 06:53:56;;;;;;;2.13;1.83;;;17.30;99.90;;;;;;5088838;28;20476;-54
2022/09/02 06:56:24;;;;;;;2.07;1.87;;;17.30;99.90;;;;;;5099393;28;20441;-53
2022/09/02 06:58:50;;;;;;;3.77;2.20;;;17.40;99.90;;;;;;5099373;28;20487;-50
2022/09/02 07:01:18;;;;;;;3.57;1.90;;;17.50;99.90;;;;;;5098330;28;20446;-51
2022/09/02 07:06:34;;;;;;;4.63;2.47;;;17.60;99.90;;;;;;5087671;28;21015;-60
2022/09/02 07:09:01;;;;;;;5.10;2.80;;;17.60;99.90;;;;;;5080068;28;20956;-48
2022/09/02 07:11:28;;;;;;;5.70;2.40;;;17.60;99.90;;;;;;5080461;28;20442;-51
2022/09/02 07:13:55;;;;;;;5.87;3.10;;;17.50;99.90;;;;;;5080461;28;20470;-55
2022/09/02 07:16:22;;;;;;;4.73;2.50;;;17.50;99.90;;;;;;5079236;28;20452;-54
2022/09/02 07:18:49;;;;;;;2.70;1.63;;;17.50;99.90;;;;;;5079664;28;20452;-54
2022/09/02 07:21:15;;;;;;;3.80;2.50;;;17.50;99.90;;;;;;5080927;28;20464;-50
2022/09/02 07:23:43;;;;;;;3.10;2.07;;;17.50;99.90;;;;;;5080287;28;20496;-54
2022/09/02 07:26:12;;;;;;;5.37;1.93;;;17.70;99.90;;;;;;5079271;28;21055;-54
2022/09/02 07:28:39;;;;;;;3.13;1.63;;;17.80;99.90;;;;;;5078403;28;20449;-56
2022/09/02 07:31:08;;;;;;;5.80;2.00;;;17.90;99.90;;;;;;5080019;28;20446;-49
2022/09/02 07:33:35;;;;;;;5.70;1.80;;;18.10;99.90;;;;;;5077157;28;20477;-48
2022/09/02 07:36:03;;;;;;;3.73;2.20;;;18.30;99.90;;;;;;5078816;28;20476;-51
2022/09/02 07:38:30;;;;;;;2.30;2.10;;;18.60;99.90;;;;;;5078229;28;20446;-50
2022/09/02 07:40:59;;;;;;;2.13;1.80;;;18.80;99.90;;;;;;5078912;28;20441;-51
2022/09/02 07:43:27;;;;;;;5.40;2.10;;;19.10;99.90;;;;;;5078274;28;20528;-53
2022/09/02 07:45:55;;;;;;;3.33;1.90;;;19.40;99.90;;;;;;5078373;28;20441;-54
2022/09/02 07:48:22;;;;;;;3.40;1.60;;;19.60;99.90;;;;;;5079767;28;20430;-52
2022/09/02 07:50:49;;;;;;;3.60;1.90;;;19.70;99.90;;;;;;5079634;28;20473;-53
2022/09/02 07:53:16;;;;;;;2.00;1.80;;;19.80;99.90;;;;;;5077312;28;20470;-57
2022/09/02 07:55:43;;;;;;;1.47;1.37;;;19.80;99.90;;;;;;5078345;28;20508;-54
2022/09/02 07:58:12;;;;;;;2.10;1.60;;;19.80;99.90;;;;;;5077744;28;20546;-52
2022/09/02 08:00:41;;;;;;;5.30;2.00;;;19.90;99.90;;;;;;5077083;28;20465;-54
2022/09/02 08:03:09;;;;;;;3.20;2.20;;;19.90;99.90;;;;;;5078285;28;20487;-52
2022/09/02 08:05:37;;;;;;;2.37;1.97;;;20.00;99.90;;;;;;5077072;28;20485;-54
2022/09/02 08:08:05;;;;;;;2.80;2.00;;;20.00;99.90;;;;;;5076934;28;20455;-53
2022/09/02 08:10:33;;;;;;;2.07;1.87;;;20.20;99.90;;;;;;5077226;28;20442;-52
2022/09/02 08:13:00;;;;;;;2.00;1.73;;;21.30;99.90;;;;;;5077898;28;20461;-52
2022/09/02 08:15:30;;;;;;;4.47;2.30;;;23.00;99.90;;;;;;5081010;28;20528;-52
2022/09/02 08:17:58;;;;;;;1.60;1.50;;;24.60;99.90;;;;;;5077381;28;20466;-53
2022/09/02 08:20:25;;;;;;;2.80;1.87;;;25.50;98.10;;;;;;5076244;28;20450;-55
2022/09/02 08:22:52;;;;;;;3.57;2.10;;;26.20;93.50;;;;;;5075753;28;20442;-54
2022/09/02 08:25:19;;;;;;;2.23;1.90;;;27.00;90.40;;;;;;5075639;28;20445;-54
2022/09/02 08:27:45;;;;;;;2.80;1.73;;;28.40;83.00;;;;;;5075324;28;20872;-53
2022/09/02 08:30:13;;;;;;;4.90;3.20;;;29.50;75.00;;;;;;5086195;28;20461;-54
2022/09/02 08:32:41;;;;;;;3.23;2.93;;;30.90;68.40;;;;;;5076104;28;20455;-54
2022/09/02 08:35:10;;;;;;;3.63;2.40;;;32.10;60.40;;;;;;5076265;28;20438;-55
2022/09/02 08:37:38;;;;;;;2.53;1.83;;;33.00;56.60;;;;;;5086707;28;20847;-47
2022/09/02 08:40:08;;;;;;;1.97;1.57;;;33.80;53.80;;;;;;5104782;28;20785;-55
2022/09/02 08:42:38;;;;;;;2.13;1.50;;;34.20;52.00;;;;;;5075515;28;20501;-55
2022/09/02 08:45:11;;;;;;;2.20;1.80;;;34.40;50.90;;;;;;5074705;28;20489;-55
2022/09/02 08:47:43;;;;;;;2.10;1.90;;;34.40;50.10;;;;;;5075728;28;20466;-58
2022/09/02 08:50:13;;;;;;;4.03;1.77;;;34.30;49.90;;;;;;5076235;28;20485;-51
2022/09/02 08:52:56;;;;;;;2.30;1.97;;;34.30;50.00;;;;;;5075002;28;20473;-52
2022/09/02 08:55:28;;;;;;;4.80;2.10;;;34.00;49.70;;;;;;5098618;28;20443;-52
2022/09/02 08:57:56;;;;;;;4.37;2.07;;;33.70;50.40;;;;;;5095281;28;20429;-53
2022/09/02 09:00:23;;;;;;;4.80;2.43;;;34.00;49.70;;;;;;5091001;28;20457;-52
2022/09/02 09:02:59;;;;;;;2.17;1.50;;;34.10;49.80;;;;;;5110849;28;20437;-54
2022/09/02 09:05:33;;;;;;;1.80;1.63;;;34.20;48.50;;;;;;5116393;28;20503;-47
2022/09/02 09:08:08;;;;;;;2.23;1.93;;;34.20;48.10;;;;;;5074757;28;20459;-53
2022/09/02 09:10:43;;;;;;;2.93;1.30;;;34.10;47.90;;;;;;5074950;28;20474;-55
2022/09/02 09:13:35;;;;;;;1.40;1.23;;;34.00;47.20;;;;;;5082730;28;20482;-50
2022/09/02 09:16:08;;;;;;;2.90;1.20;;;34.00;47.10;;;;;;5083229;28;20465;-51
2022/09/02 09:18:39;;;;;;;3.13;1.63;;;34.10;45.20;;;;;;5091255;28;20687;-55
2022/09/02 09:21:06;;;;;;;1.73;1.40;;;34.00;45.70;;;;;;5075303;28;20478;-52
2022/09/02 09:23:35;;;;;;;2.13;1.37;;;34.00;45.30;;;;;;5085843;28;20557;-54
2022/09/02 09:26:08;;;;;;;1.63;1.23;;;33.80;44.90;;;;;;5088713;28;20456;-55
2022/09/02 09:28:40;;;;;;;2.23;1.67;;;33.90;44.80;;;;;;5095446;28;20719;-50
2022/09/02 09:31:11;;;;;;;2.50;1.60;;;33.90;44.60;;;;;;5077644;28;20891;-54
2022/09/02 09:33:40;;;;;;;3.30;1.80;;;34.00;44.60;;;;;;5086000;28;20916;-53
2022/09/02 09:36:08;;;;;;;1.90;1.50;;;34.00;46.00;;;;;;5074982;28;20801;-54
2022/09/02 09:38:37;;;;;;;2.07;1.30;;;34.00;44.60;;;;;;5085708;28;20474;-35
2022/09/02 09:41:14;;;;;;;3.20;1.40;;;34.00;44.30;;;;;;5087868;28;20540;-35
2022/09/02 09:43:41;;;;;;;1.77;1.40;;;34.30;43.60;;;;;;5080867;28;20486;-54
2022/09/02 09:46:25;;;;;;;2.70;1.37;;;34.30;44.10;;;;;;5079832;28;20434;-35
2022/09/02 09:48:54;;;;;;;2.10;1.70;;;34.10;44.30;;;;;;5074653;28;20488;-54
2022/09/02 09:51:21;;;;;;;2.07;1.60;;;34.10;44.30;;;;;;5074537;28;20749;-58
2022/09/02 09:53:48;;;;;;;2.00;1.73;;;34.00;43.80;;;;;;5087544;28;20549;-54
2022/09/02 09:56:29;;;;;;;2.30;1.90;;;33.30;45.00;;;;;;5079940;28;20505;-38
2022/09/02 09:58:56;;;;;;;2.47;1.63;;;32.80;45.60;;;;;;5074700;28;20445;-52
2022/09/02 10:01:25;;;;;;;2.10;1.50;;;32.90;45.20;;;;;;5097340;28;20462;-52
2022/09/02 10:03:56;;;;;;;2.10;1.50;;;33.00;45.20;;;;;;5085879;28;20469;-55
2022/09/02 10:06:25;;;;;;;2.30;1.80;;;33.20;44.30;;;;;;5106344;28;20442;-35
2022/09/02 10:08:54;;;;;;;1.53;1.17;;;33.30;42.60;;;;;;5093114;28;20444;-51
2022/09/02 10:11:24;;;;;;;2.83;1.20;;;33.50;42.80;;;;;;5080678;28;20558;-53
2022/09/02 10:13:51;;;;;;;1.87;1.53;;;33.50;43.60;;;;;;5074035;28;20548;-51
2022/09/02 10:16:34;;;;;;;2.17;1.57;;;33.40;44.50;;;;;;5074224;28;20442;-51
2022/09/02 10:19:16;;;;;;;2.40;1.50;;;33.40;44.60;;;;;;5074947;28;20981;-54
2022/09/02 10:22:08;;;;;;;1.50;1.33;;;33.30;44.70;;;;;;5083815;28;20452;-54
2022/09/02 10:24:55;;;;;;;2.43;1.40;;;33.40;44.90;;;;;;5077314;28;20462;-55
2022/09/02 10:27:31;;;;;;;2.67;2.30;;;33.30;44.40;;;;;;5083775;28;20569;-49
2022/09/02 10:30:04;;;;;;;1.70;1.33;;;33.40;45.00;;;;;;5088082;28;20781;-48
2022/09/02 10:33:00;;;;;;;1.83;1.63;;;33.40;44.10;;;;;;5076419;28;20753;-53
2022/09/02 10:35:40;;;;;;;1.70;1.60;;;32.90;44.90;;;;;;5076560;28;20463;-53
2022/09/02 10:38:15;;;;;;;1.70;1.47;;;32.60;44.00;;;;;;5105981;28;20464;-47
2022/09/02 10:40:49;;;;;;;1.60;1.47;;;32.70;43.70;;;;;;5099922;28;20449;-50
2022/09/02 10:43:28;;;;;;;1.47;1.37;;;32.60;44.80;;;;;;5106681;28;20464;-48
2022/09/02 10:45:59;;;;;;;3.00;1.20;;;32.20;42.80;;;;;;5107474;28;20544;-52
2022/09/02 10:48:37;;;;;;;1.80;1.70;;;32.20;43.30;;;;;;5108797;28;20525;-52
2022/09/02 10:51:15;;;;;;;1.50;1.27;;;32.20;44.00;;;;;;5109058;28;20512;-51
2022/09/02 10:53:54;;;;;;;1.60;1.43;;;32.00;44.00;;;;;;5107796;28;20517;-52
2022/09/02 10:56:25;;;;;;;2.17;1.67;;;31.70;45.40;;;;;;5107129;28;20461;-47
2022/09/02 10:58:57;;;;;;;1.30;1.20;;;31.10;46.30;;;;;;5107503;28;20503;-54
2022/09/02 11:01:28;;;;;;;3.57;1.67;;;30.30;47.60;;;;;;5108550;28;20453;-48
2022/09/02 11:04:08;;;;;;;3.07;1.60;;;29.40;48.60;;;;;;5103590;28;20461;-39
2022/09/02 11:06:41;;;;;;;2.80;1.90;;;29.10;50.80;;;;;;5110659;28;20464;-46
2022/09/02 11:09:12;;;;;;;2.07;1.87;;;28.90;50.20;;;;;;5112483;28;20924;-54
2022/09/02 11:11:43;;;;;;;3.07;1.77;;;28.70;50.80;;;;;;5113883;28;20431;-51
2022/09/02 11:14:21;;;;;;;4.10;1.97;;;28.40;50.60;;;;;;5113308;28;20482;-50
2022/09/02 11:16:51;;;;;;;2.77;1.97;;;28.10;51.00;;;;;;5113333;28;20540;-47
2022/09/02 11:19:27;;;;;;;2.00;1.80;;;27.90;51.30;;;;;;5114898;28;20452;-54
2022/09/02 11:22:05;;;;;;;2.47;2.10;;;27.80;52.20;;;;;;5115550;28;20465;-42
2022/09/02 11:24:36;;;;;;;2.90;1.80;;;27.80;51.70;;;;;;5114640;28;20540;-53
2022/09/02 11:27:11;;;;;;;2.43;1.60;;;27.90;50.90;;;;;;5115408;28;20651;-47
2022/09/02 11:29:47;;;;;;;2.83;1.53;;;27.80;52.00;;;;;;5115491;28;20492;-45
2022/09/02 11:32:19;;;;;;;2.10;1.50;;;27.70;49.40;;;;;;5114384;28;20435;-51
2022/09/02 11:34:49;;;;;;;2.80;2.10;;;27.40;50.60;;;;;;5114309;28;20410;-45
2022/09/02 11:37:30;;;;;;;2.50;1.87;;;27.10;50.10;;;;;;5114768;28;20536;-48
2022/09/02 11:40:01;;;;;;;2.50;1.60;;;26.80;50.80;;;;;;5115134;28;20422;-51
2022/09/02 11:43:02;;;;;;;3.07;2.17;;;26.50;51.20;;;;;;5115188;28;20429;-52
2022/09/02 11:46:04;;;;;;;2.47;2.17;;;26.40;52.20;;;;;;5100310;28;20484;-52
2022/09/02 11:49:04;;;;;;;1.90;1.63;;;26.30;50.50;;;;;;5079838;28;20448;-47
2022/09/02 11:52:04;;;;;;;2.00;1.73;;;26.30;49.80;;;;;;5115949;28;20557;-52
2022/09/02 11:54:38;;;;;;;1.57;1.33;;;26.30;51.50;;;;;;5115498;28;20463;-51
2022/09/02 11:57:06;;;;;;;1.77;1.50;;;26.40;52.20;;;;;;5115378;28;20553;-54
2022/09/02 12:00:13;;;;;;;1.70;1.50;;;26.40;51.70;;;;;;5111781;28;20457;-53
2022/09/02 12:02:44;;;;;;;2.93;1.40;;;26.20;52.20;;;;;;5115496;28;20882;-53
2022/09/02 12:05:48;;;;;;;2.17;1.67;;;25.90;52.20;;;;;;5115490;28;20490;-46
2022/09/02 12:08:45;;;;;;;5.10;1.50;;;25.70;52.90;;;;;;5115172;28;20757;-48
2022/09/02 12:11:36;;;;;;;3.20;1.40;;;25.30;52.90;;;;;;5102786;28;20471;-49
2022/09/02 12:14:03;;;;;;;2.03;1.37;;;25.30;53.40;;;;;;5115639;28;20482;-42
2022/09/02 12:17:02;;;;;;;1.97;1.50;;;25.30;53.30;;;;;;5115494;28;20488;-46
2022/09/02 12:19:41;;;;;;;1.80;1.50;;;25.30;53.20;;;;;;5113689;28;20454;-48
2022/09/02 12:22:37;;;;;;;2.40;2.00;;;25.20;53.00;;;;;;5114767;28;20489;-51
2022/09/02 12:25:05;;;;;;;2.77;1.87;;;25.20;52.60;;;;;;5114537;28;20500;-48
2022/09/02 12:27:38;;;;;;;3.10;1.93;;;25.20;53.80;;;;;;5114538;28;20436;-53
2022/09/02 12:30:08;;;;;;;2.30;2.10;;;25.30;53.70;;;;;;5114363;28;20470;-46
2022/09/02 12:33:03;;;;;;;3.00;1.80;;;25.50;52.90;;;;;;5114525;28;20433;-48
2022/09/02 12:35:53;;;;;;;2.80;1.60;;;25.60;52.00;;;;;;5106662;28;20447;-40
2022/09/02 12:38:28;;;;;;;1.70;1.60;;;25.60;52.20;;;;;;5093263;28;20438;-48
2022/09/02 12:41:11;;;;;;;2.90;1.90;;;25.50;52.70;;;;;;5090686;28;20445;-48
2022/09/02 12:43:52;;;;;;;2.20;1.77;;;25.30;52.10;;;;;;5116174;28;20465;-45
2022/09/02 12:46:27;;;;;;;2.07;1.63;;;25.20;52.20;;;;;;5117261;28;20504;-41
2022/09/02 12:49:01;;;;;;;12.40;7.07;;;25.00;53.10;;;;;;5117754;28;20485;-47
2022/09/02 12:51:55;;;;;;;2.93;2.27;;;25.10;54.80;;;;;;5117434;28;20468;-49
2022/09/02 12:54:35;;;;;;;3.30;1.87;;;25.20;53.80;;;;;;5117428;28;20483;-40
2022/09/02 12:57:03;;;;;;;5.93;3.90;;;25.30;53.60;;;;;;5117026;28;20480;-46
2022/09/02 12:59:33;;;;;;;5.83;2.27;;;25.30;54.30;;;;;;5116057;28;20969;-44
2022/09/02 13:02:36;;;;;;;2.70;1.67;;;25.30;55.60;;;;;;5115254;28;20577;-52
2022/09/02 13:05:16;;;;;;;3.10;2.20;;;25.30;53.00;;;;;;5114571;28;20541;-48
2022/09/02 13:08:22;;;;;;;3.63;2.17;;;25.30;54.30;;;;;;5115478;28;20501;-38
2022/09/02 13:11:31;;;;;;;2.00;1.50;;;25.30;53.80;;;;;;5114509;28;20509;-41